sensor_id;sensor_type;location;lat;lon;timestamp;P1;durP1;ratioP1;P2;durP2;ratioP2
19575;SDS011;41589;51.196;7.074;2023-07-20T00:02:10;1.03;;;1.03;;
19575;SDS011;41589;51.196;7.074;2023-07-20T00:07:10;1.10;;;1.10;;
19575;SDS011;41589;51.196;7.074;2023-07-20T00:12:11;1.10;;;1.10;;
19575;SDS011;41589;51.196;7.074;2023-07-20T00:17:11;1.20;;;1.10;;
19575;SDS011;41589;51.196;7.074;2023-07-20T00:22:11;1.00;;;1.00;;
19575;SDS011;41589;51.196;7.074;2023-07-20T00:27:13;0.90;;;0.90;;
19575;SDS011;41589;51.196;7.074;2023-07-20T00:32:13;1.80;;;1.03;;
19575;SDS011;41589;51.196;7.074;2023-07-20T00:37:14;1.40;;;1.30;;
19575;SDS011;41589;51.196;7.074;2023-07-20T00:42:14;1.30;;;1.20;;
19575;SDS011;41589;51.196;7.074;2023-07-20T00:47:14;1.00;;;1.00;;
19575;SDS011;41589;51.196;7.074;2023-07-20T00:52:15;1.40;;;1.30;;
19575;SDS011;41589;51.196;7.074;2023-07-20T00:57:17;1.03;;;1.03;;
19575;SDS011;41589;51.196;7.074;2023-07-20T01:02:18;1.20;;;1.10;;
19575;SDS011;41589;51.196;7.074;2023-07-20T01:07:23;1.20;;;1.10;;
19575;SDS011;41589;51.196;7.074;2023-07-20T01:12:29;1.03;;;1.00;;
19575;SDS011;41589;51.196;7.074;2023-07-20T01:17:39;1.00;;;1.00;;
19575;SDS011;41589;51.196;7.074;2023-07-20T01:33:19;1.97;;;1.50;;
19575;SDS011;41589;51.196;7.074;2023-07-20T01:38:20;0.90;;;0.90;;
19575;SDS011;41589;51.196;7.074;2023-07-20T01:43:23;1.40;;;1.30;;
19575;SDS011;41589;51.196;7.074;2023-07-20T01:48:23;1.20;;;1.10;;
19575;SDS011;41589;51.196;7.074;2023-07-20T01:53:24;1.20;;;1.20;;
19575;SDS011;41589;51.196;7.074;2023-07-20T01:58:24;1.07;;;1.07;;
19575;SDS011;41589;51.196;7.074;2023-07-20T02:03:25;1.40;;;1.30;;
19575;SDS011;41589;51.196;7.074;2023-07-20T02:08:26;1.40;;;1.30;;
19575;SDS011;41589;51.196;7.074;2023-07-20T02:13:30;1.30;;;1.30;;
19575;SDS011;41589;51.196;7.074;2023-07-20T02:18:31;1.67;;;1.33;;
19575;SDS011;41589;51.196;7.074;2023-07-20T02:23:31;1.20;;;1.20;;
19575;SDS011;41589;51.196;7.074;2023-07-20T02:28:32;1.63;;;1.37;;
19575;SDS011;41589;51.196;7.074;2023-07-20T02:33:32;1.37;;;1.23;;
19575;SDS011;41589;51.196;7.074;2023-07-20T02:38:32;1.50;;;1.40;;
19575;SDS011;41589;51.196;7.074;2023-07-20T02:43:33;1.43;;;1.30;;
19575;SDS011;41589;51.196;7.074;2023-07-20T02:48:33;1.23;;;1.20;;
19575;SDS011;41589;51.196;7.074;2023-07-20T02:53:33;1.37;;;1.27;;
19575;SDS011;41589;51.196;7.074;2023-07-20T02:58:34;1.50;;;1.27;;
19575;SDS011;41589;51.196;7.074;2023-07-20T03:03:37;1.37;;;1.17;;
19575;SDS011;41589;51.196;7.074;2023-07-20T03:08:38;1.37;;;1.27;;
19575;SDS011;41589;51.196;7.074;2023-07-20T03:13:38;1.40;;;1.30;;
19575;SDS011;41589;51.196;7.074;2023-07-20T03:18:39;1.40;;;1.30;;
19575;SDS011;41589;51.196;7.074;2023-07-20T03:23:41;1.43;;;1.33;;
19575;SDS011;41589;51.196;7.074;2023-07-20T03:28:42;1.40;;;1.30;;
19575;SDS011;41589;51.196;7.074;2023-07-20T03:33:44;1.60;;;1.50;;
19575;SDS011;41589;51.196;7.074;2023-07-20T03:38:45;1.40;;;1.30;;
19575;SDS011;41589;51.196;7.074;2023-07-20T03:43:45;1.30;;;1.20;;
19575;SDS011;41589;51.196;7.074;2023-07-20T03:48:45;2.13;;;1.53;;
19575;SDS011;41589;51.196;7.074;2023-07-20T03:53:46;1.30;;;1.30;;
19575;SDS011;41589;51.196;7.074;2023-07-20T03:58:46;1.60;;;1.50;;
19575;SDS011;41589;51.196;7.074;2023-07-20T04:03:46;1.87;;;1.63;;
19575;SDS011;41589;51.196;7.074;2023-07-20T04:08:47;1.50;;;1.40;;
19575;SDS011;41589;51.196;7.074;2023-07-20T04:13:47;1.63;;;1.53;;
19575;SDS011;41589;51.196;7.074;2023-07-20T04:18:48;1.57;;;1.47;;
19575;SDS011;41589;51.196;7.074;2023-07-20T04:23:49;1.80;;;1.70;;
19575;SDS011;41589;51.196;7.074;2023-07-20T04:28:49;1.73;;;1.60;;
19575;SDS011;41589;51.196;7.074;2023-07-20T04:34:04;1.73;;;1.63;;
19575;SDS011;41589;51.196;7.074;2023-07-20T04:39:09;2.10;;;2.00;;
19575;SDS011;41589;51.196;7.074;2023-07-20T04:44:14;1.80;;;1.70;;
19575;SDS011;41589;51.196;7.074;2023-07-20T04:49:14;2.10;;;2.00;;
19575;SDS011;41589;51.196;7.074;2023-07-20T04:54:17;2.10;;;1.87;;
19575;SDS011;41589;51.196;7.074;2023-07-20T04:59:19;2.40;;;1.87;;
19575;SDS011;41589;51.196;7.074;2023-07-20T05:04:19;2.03;;;1.90;;
19575;SDS011;41589;51.196;7.074;2023-07-20T05:09:20;2.27;;;2.10;;
19575;SDS011;41589;51.196;7.074;2023-07-20T05:14:20;2.67;;;2.47;;
19575;SDS011;41589;51.196;7.074;2023-07-20T05:19:24;2.30;;;2.20;;
19575;SDS011;41589;51.196;7.074;2023-07-20T05:24:24;2.30;;;2.20;;
19575;SDS011;41589;51.196;7.074;2023-07-20T05:29:25;2.30;;;2.20;;
19575;SDS011;41589;51.196;7.074;2023-07-20T05:34:25;2.67;;;2.47;;
19575;SDS011;41589;51.196;7.074;2023-07-20T05:39:26;2.60;;;2.50;;
19575;SDS011;41589;51.196;7.074;2023-07-20T05:44:26;3.87;;;3.57;;
19575;SDS011;41589;51.196;7.074;2023-07-20T05:49:26;3.83;;;3.60;;
19575;SDS011;41589;51.196;7.074;2023-07-20T05:54:27;4.00;;;3.77;;
19575;SDS011;41589;51.196;7.074;2023-07-20T05:59:28;3.97;;;3.77;;
19575;SDS011;41589;51.196;7.074;2023-07-20T06:04:31;4.73;;;4.50;;
19575;SDS011;41589;51.196;7.074;2023-07-20T06:09:32;5.00;;;4.70;;
19575;SDS011;41589;51.196;7.074;2023-07-20T06:14:32;4.70;;;4.40;;
19575;SDS011;41589;51.196;7.074;2023-07-20T06:19:32;3.93;;;3.73;;
19575;SDS011;41589;51.196;7.074;2023-07-20T06:24:33;3.87;;;3.67;;
19575;SDS011;41589;51.196;7.074;2023-07-20T06:29:33;4.23;;;4.03;;
19575;SDS011;41589;51.196;7.074;2023-07-20T06:34:33;3.47;;;3.27;;
19575;SDS011;41589;51.196;7.074;2023-07-20T06:39:36;3.20;;;3.00;;
19575;SDS011;41589;51.196;7.074;2023-07-20T06:44:37;2.67;;;2.57;;
19575;SDS011;41589;51.196;7.074;2023-07-20T06:49:37;3.00;;;2.90;;
19575;SDS011;41589;51.196;7.074;2023-07-20T06:54:38;3.30;;;3.10;;
19575;SDS011;41589;51.196;7.074;2023-07-20T06:59:38;3.57;;;3.37;;
19575;SDS011;41589;51.196;7.074;2023-07-20T07:04:38;4.10;;;3.90;;
19575;SDS011;41589;51.196;7.074;2023-07-20T07:09:39;4.20;;;4.00;;
19575;SDS011;41589;51.196;7.074;2023-07-20T07:14:39;4.00;;;3.80;;
19575;SDS011;41589;51.196;7.074;2023-07-20T07:19:40;3.43;;;3.23;;
19575;SDS011;41589;51.196;7.074;2023-07-20T07:24:42;3.83;;;3.63;;
19575;SDS011;41589;51.196;7.074;2023-07-20T07:29:42;3.70;;;3.50;;
19575;SDS011;41589;51.196;7.074;2023-07-20T07:34:46;4.20;;;4.00;;
19575;SDS011;41589;51.196;7.074;2023-07-20T07:39:47;4.30;;;4.00;;
19575;SDS011;41589;51.196;7.074;2023-07-20T07:44:48;3.70;;;3.50;;
19575;SDS011;41589;51.196;7.074;2023-07-20T07:49:48;2.30;;;2.20;;
19575;SDS011;41589;51.196;7.074;2023-07-20T07:54:49;2.40;;;2.20;;
19575;SDS011;41589;51.196;7.074;2023-07-20T07:59:50;2.10;;;2.00;;
19575;SDS011;41589;51.196;7.074;2023-07-20T08:04:50;2.10;;;2.00;;
19575;SDS011;41589;51.196;7.074;2023-07-20T08:09:52;2.00;;;1.90;;
19575;SDS011;41589;51.196;7.074;2023-07-20T08:14:52;2.00;;;1.90;;
19575;SDS011;41589;51.196;7.074;2023-07-20T08:19:53;1.93;;;1.70;;
19575;SDS011;41589;51.196;7.074;2023-07-20T08:24:53;1.57;;;1.47;;
19575;SDS011;41589;51.196;7.074;2023-07-20T08:29:53;1.70;;;1.60;;
19575;SDS011;41589;51.196;7.074;2023-07-20T08:34:54;1.50;;;1.40;;
19575;SDS011;41589;51.196;7.074;2023-07-20T08:39:54;1.57;;;1.47;;
19575;SDS011;41589;51.196;7.074;2023-07-20T08:44:54;1.30;;;1.30;;
19575;SDS011;41589;51.196;7.074;2023-07-20T08:49:55;1.40;;;1.30;;
19575;SDS011;41589;51.196;7.074;2023-07-20T08:54:56;1.30;;;1.30;;
19575;SDS011;41589;51.196;7.074;2023-07-20T08:59:56;1.17;;;1.17;;
19575;SDS011;41589;51.196;7.074;2023-07-20T09:04:57;1.13;;;1.13;;
19575;SDS011;41589;51.196;7.074;2023-07-20T09:09:58;1.00;;;1.00;;
19575;SDS011;41589;51.196;7.074;2023-07-20T09:15:00;1.27;;;1.17;;
19575;SDS011;41589;51.196;7.074;2023-07-20T09:20:04;1.20;;;1.20;;
19575;SDS011;41589;51.196;7.074;2023-07-20T09:25:12;1.10;;;1.10;;
19575;SDS011;41589;51.196;7.074;2023-07-20T09:30:15;1.20;;;1.20;;
19575;SDS011;41589;51.196;7.074;2023-07-20T09:35:16;1.00;;;1.00;;
19575;SDS011;41589;51.196;7.074;2023-07-20T09:40:18;1.30;;;1.30;;
19575;SDS011;41589;51.196;7.074;2023-07-20T09:45:19;1.07;;;1.07;;
19575;SDS011;41589;51.196;7.074;2023-07-20T09:50:19;0.90;;;0.90;;
19575;SDS011;41589;51.196;7.074;2023-07-20T09:55:20;1.17;;;1.17;;
19575;SDS011;41589;51.196;7.074;2023-07-20T10:00:21;0.90;;;0.90;;
19575;SDS011;41589;51.196;7.074;2023-07-20T10:05:21;0.90;;;0.90;;
19575;SDS011;41589;51.196;7.074;2023-07-20T10:10:22;1.00;;;1.00;;
19575;SDS011;41589;51.196;7.074;2023-07-20T10:15:24;1.07;;;1.07;;
19575;SDS011;41589;51.196;7.074;2023-07-20T10:20:28;0.80;;;0.80;;
19575;SDS011;41589;51.196;7.074;2023-07-20T10:25:30;1.03;;;1.00;;
19575;SDS011;41589;51.196;7.074;2023-07-20T10:30:35;1.00;;;1.00;;
19575;SDS011;41589;51.196;7.074;2023-07-20T10:35:53;0.97;;;0.97;;
19575;SDS011;41589;51.196;7.074;2023-07-20T10:40:55;1.00;;;1.00;;
19575;SDS011;41589;51.196;7.074;2023-07-20T10:45:56;1.17;;;1.17;;
19575;SDS011;41589;51.196;7.074;2023-07-20T10:51:19;0.90;;;0.90;;
19575;SDS011;41589;51.196;7.074;2023-07-20T10:56:22;0.90;;;0.90;;
19575;SDS011;41589;51.196;7.074;2023-07-20T11:01:27;0.90;;;0.90;;
19575;SDS011;41589;51.196;7.074;2023-07-20T11:06:29;0.83;;;0.80;;
19575;SDS011;41589;51.196;7.074;2023-07-20T11:11:33;0.60;;;0.60;;
19575;SDS011;41589;51.196;7.074;2023-07-20T11:16:36;0.50;;;0.50;;
19575;SDS011;41589;51.196;7.074;2023-07-20T11:21:45;0.70;;;0.70;;
19575;SDS011;41589;51.196;7.074;2023-07-20T11:26:47;0.70;;;0.70;;
19575;SDS011;41589;51.196;7.074;2023-07-20T11:31:49;0.60;;;0.60;;
19575;SDS011;41589;51.196;7.074;2023-07-20T11:36:50;0.77;;;0.77;;
19575;SDS011;41589;51.196;7.074;2023-07-20T11:41:52;0.70;;;0.70;;
19575;SDS011;41589;51.196;7.074;2023-07-20T11:52:07;0.83;;;0.83;;
19575;SDS011;41589;51.196;7.074;2023-07-20T11:57:19;0.97;;;0.80;;
19575;SDS011;41589;51.196;7.074;2023-07-20T12:02:20;0.53;;;0.53;;
19575;SDS011;41589;51.196;7.074;2023-07-20T12:07:21;1.60;;;0.63;;
19575;SDS011;41589;51.196;7.074;2023-07-20T12:12:22;0.40;;;0.40;;
19575;SDS011;41589;51.196;7.074;2023-07-20T12:17:22;0.40;;;0.40;;
19575;SDS011;41589;51.196;7.074;2023-07-20T12:22:22;0.50;;;0.50;;
19575;SDS011;41589;51.196;7.074;2023-07-20T12:27:26;0.50;;;0.50;;
19575;SDS011;41589;51.196;7.074;2023-07-20T12:32:28;0.40;;;0.40;;
19575;SDS011;41589;51.196;7.074;2023-07-20T12:37:28;0.50;;;0.50;;
19575;SDS011;41589;51.196;7.074;2023-07-20T12:42:28;0.50;;;0.50;;
19575;SDS011;41589;51.196;7.074;2023-07-20T12:47:29;0.50;;;0.50;;
19575;SDS011;41589;51.196;7.074;2023-07-20T12:52:29;0.30;;;0.30;;
19575;SDS011;41589;51.196;7.074;2023-07-20T12:57:30;0.57;;;0.50;;
19575;SDS011;41589;51.196;7.074;2023-07-20T13:02:31;0.30;;;0.30;;
19575;SDS011;41589;51.196;7.074;2023-07-20T13:07:36;0.33;;;0.33;;
19575;SDS011;41589;51.196;7.074;2023-07-20T13:12:38;0.40;;;0.40;;
19575;SDS011;41589;51.196;7.074;2023-07-20T13:17:39;0.50;;;0.50;;
19575;SDS011;41589;51.196;7.074;2023-07-20T13:22:39;0.40;;;0.40;;
19575;SDS011;41589;51.196;7.074;2023-07-20T13:27:40;0.70;;;0.60;;
19575;SDS011;41589;51.196;7.074;2023-07-20T13:32:41;0.40;;;0.40;;
19575;SDS011;41589;51.196;7.074;2023-07-20T13:37:41;0.40;;;0.40;;
19575;SDS011;41589;51.196;7.074;2023-07-20T13:42:42;0.50;;;0.50;;
19575;SDS011;41589;51.196;7.074;2023-07-20T13:47:42;0.40;;;0.40;;
19575;SDS011;41589;51.196;7.074;2023-07-20T13:52:43;1.23;;;0.40;;
19575;SDS011;41589;51.196;7.074;2023-07-20T13:57:43;0.40;;;0.40;;
19575;SDS011;41589;51.196;7.074;2023-07-20T14:02:43;0.70;;;0.40;;
19575;SDS011;41589;51.196;7.074;2023-07-20T14:07:44;0.47;;;0.47;;
19575;SDS011;41589;51.196;7.074;2023-07-20T14:12:44;0.50;;;0.50;;
19575;SDS011;41589;51.196;7.074;2023-07-20T14:17:45;0.47;;;0.47;;
19575;SDS011;41589;51.196;7.074;2023-07-20T14:22:46;0.80;;;0.77;;
19575;SDS011;41589;51.196;7.074;2023-07-20T14:27:47;0.50;;;0.50;;
19575;SDS011;41589;51.196;7.074;2023-07-20T14:32:48;1.50;;;0.60;;
19575;SDS011;41589;51.196;7.074;2023-07-20T14:37:48;0.60;;;0.60;;
19575;SDS011;41589;51.196;7.074;2023-07-20T14:42:50;0.80;;;0.63;;
19575;SDS011;41589;51.196;7.074;2023-07-20T14:47:52;0.50;;;0.50;;
19575;SDS011;41589;51.196;7.074;2023-07-20T14:52:54;0.57;;;0.57;;
19575;SDS011;41589;51.196;7.074;2023-07-20T14:57:55;0.40;;;0.40;;
19575;SDS011;41589;51.196;7.074;2023-07-20T15:02:55;0.53;;;0.50;;
19575;SDS011;41589;51.196;7.074;2023-07-20T15:07:56;0.50;;;0.50;;
19575;SDS011;41589;51.196;7.074;2023-07-20T15:12:56;0.53;;;0.50;;
19575;SDS011;41589;51.196;7.074;2023-07-20T15:17:56;0.60;;;0.60;;
19575;SDS011;41589;51.196;7.074;2023-07-20T15:22:57;0.50;;;0.50;;
19575;SDS011;41589;51.196;7.074;2023-07-20T15:27:57;0.60;;;0.60;;
19575;SDS011;41589;51.196;7.074;2023-07-20T15:32:58;0.50;;;0.50;;
19575;SDS011;41589;51.196;7.074;2023-07-20T15:37:58;0.40;;;0.40;;
19575;SDS011;41589;51.196;7.074;2023-07-20T15:42:59;0.50;;;0.50;;
19575;SDS011;41589;51.196;7.074;2023-07-20T15:48:00;0.40;;;0.40;;
19575;SDS011;41589;51.196;7.074;2023-07-20T15:53:00;1.23;;;0.50;;
19575;SDS011;41589;51.196;7.074;2023-07-20T15:58:00;0.40;;;0.40;;
19575;SDS011;41589;51.196;7.074;2023-07-20T16:03:02;0.40;;;0.40;;
19575;SDS011;41589;51.196;7.074;2023-07-20T16:08:02;0.30;;;0.30;;
19575;SDS011;41589;51.196;7.074;2023-07-20T16:13:04;0.47;;;0.47;;
19575;SDS011;41589;51.196;7.074;2023-07-20T16:18:04;0.40;;;0.40;;
19575;SDS011;41589;51.196;7.074;2023-07-20T16:23:05;0.40;;;0.40;;
19575;SDS011;41589;51.196;7.074;2023-07-20T16:28:05;0.30;;;0.30;;
19575;SDS011;41589;51.196;7.074;2023-07-20T16:33:06;0.37;;;0.37;;
19575;SDS011;41589;51.196;7.074;2023-07-20T16:38:07;0.40;;;0.40;;
19575;SDS011;41589;51.196;7.074;2023-07-20T16:43:07;0.40;;;0.40;;
19575;SDS011;41589;51.196;7.074;2023-07-20T16:48:07;0.50;;;0.50;;
19575;SDS011;41589;51.196;7.074;2023-07-20T16:53:09;0.40;;;0.40;;
19575;SDS011;41589;51.196;7.074;2023-07-20T16:58:09;0.87;;;0.43;;
19575;SDS011;41589;51.196;7.074;2023-07-20T17:03:10;0.37;;;0.37;;
19575;SDS011;41589;51.196;7.074;2023-07-20T17:08:10;0.50;;;0.50;;
19575;SDS011;41589;51.196;7.074;2023-07-20T17:13:11;0.50;;;0.50;;
19575;SDS011;41589;51.196;7.074;2023-07-20T17:18:14;0.60;;;0.60;;
19575;SDS011;41589;51.196;7.074;2023-07-20T17:23:15;0.53;;;0.47;;
19575;SDS011;41589;51.196;7.074;2023-07-20T17:28:16;0.40;;;0.40;;
19575;SDS011;41589;51.196;7.074;2023-07-20T17:33:17;0.40;;;0.40;;
19575;SDS011;41589;51.196;7.074;2023-07-20T17:38:17;0.50;;;0.50;;
19575;SDS011;41589;51.196;7.074;2023-07-20T17:43:18;0.40;;;0.40;;
19575;SDS011;41589;51.196;7.074;2023-07-20T17:48:19;0.40;;;0.40;;
19575;SDS011;41589;51.196;7.074;2023-07-20T17:53:19;0.50;;;0.50;;
19575;SDS011;41589;51.196;7.074;2023-07-20T17:58:20;0.50;;;0.50;;
19575;SDS011;41589;51.196;7.074;2023-07-20T18:03:20;0.50;;;0.50;;
19575;SDS011;41589;51.196;7.074;2023-07-20T18:08:21;1.50;;;0.50;;
19575;SDS011;41589;51.196;7.074;2023-07-20T18:13:21;0.50;;;0.50;;
19575;SDS011;41589;51.196;7.074;2023-07-20T18:18:21;0.40;;;0.40;;
19575;SDS011;41589;51.196;7.074;2023-07-20T18:23:22;0.50;;;0.50;;
19575;SDS011;41589;51.196;7.074;2023-07-20T18:28:22;0.93;;;0.60;;
19575;SDS011;41589;51.196;7.074;2023-07-20T18:33:23;1.90;;;0.70;;
19575;SDS011;41589;51.196;7.074;2023-07-20T18:38:23;0.60;;;0.60;;
19575;SDS011;41589;51.196;7.074;2023-07-20T18:43:23;1.07;;;0.50;;
19575;SDS011;41589;51.196;7.074;2023-07-20T18:48:24;0.83;;;0.60;;
19575;SDS011;41589;51.196;7.074;2023-07-20T18:53:24;0.70;;;0.70;;
19575;SDS011;41589;51.196;7.074;2023-07-20T18:58:25;0.47;;;0.47;;
19575;SDS011;41589;51.196;7.074;2023-07-20T19:03:25;0.93;;;0.60;;
19575;SDS011;41589;51.196;7.074;2023-07-20T19:08:26;0.50;;;0.50;;
19575;SDS011;41589;51.196;7.074;2023-07-20T19:13:26;0.73;;;0.50;;
19575;SDS011;41589;51.196;7.074;2023-07-20T19:18:26;0.40;;;0.40;;
19575;SDS011;41589;51.196;7.074;2023-07-20T19:23:27;0.50;;;0.50;;
19575;SDS011;41589;51.196;7.074;2023-07-20T19:28:30;0.43;;;0.43;;
19575;SDS011;41589;51.196;7.074;2023-07-20T19:33:30;0.73;;;0.73;;
19575;SDS011;41589;51.196;7.074;2023-07-20T19:38:31;0.80;;;0.80;;
19575;SDS011;41589;51.196;7.074;2023-07-20T19:43:31;0.60;;;0.60;;
19575;SDS011;41589;51.196;7.074;2023-07-20T19:48:32;0.97;;;0.50;;
19575;SDS011;41589;51.196;7.074;2023-07-20T19:53:33;0.60;;;0.60;;
19575;SDS011;41589;51.196;7.074;2023-07-20T19:58:33;2.20;;;0.90;;
19575;SDS011;41589;51.196;7.074;2023-07-20T20:03:34;0.50;;;0.50;;
19575;SDS011;41589;51.196;7.074;2023-07-20T20:08:35;0.87;;;0.80;;
19575;SDS011;41589;51.196;7.074;2023-07-20T20:13:36;0.60;;;0.60;;
19575;SDS011;41589;51.196;7.074;2023-07-20T20:18:37;0.50;;;0.50;;
19575;SDS011;41589;51.196;7.074;2023-07-20T20:23:46;0.63;;;0.60;;
19575;SDS011;41589;51.196;7.074;2023-07-20T20:28:49;0.50;;;0.50;;
19575;SDS011;41589;51.196;7.074;2023-07-20T20:33:49;0.67;;;0.60;;
19575;SDS011;41589;51.196;7.074;2023-07-20T20:38:50;0.57;;;0.57;;
19575;SDS011;41589;51.196;7.074;2023-07-20T20:43:50;0.60;;;0.60;;
19575;SDS011;41589;51.196;7.074;2023-07-20T20:48:50;0.57;;;0.57;;
19575;SDS011;41589;51.196;7.074;2023-07-20T20:53:51;0.53;;;0.53;;
19575;SDS011;41589;51.196;7.074;2023-07-20T20:58:51;0.60;;;0.60;;
19575;SDS011;41589;51.196;7.074;2023-07-20T21:03:53;0.50;;;0.50;;
19575;SDS011;41589;51.196;7.074;2023-07-20T21:08:54;0.93;;;0.70;;
19575;SDS011;41589;51.196;7.074;2023-07-20T21:13:55;0.77;;;0.77;;
19575;SDS011;41589;51.196;7.074;2023-07-20T21:18:56;1.07;;;0.80;;
19575;SDS011;41589;51.196;7.074;2023-07-20T21:23:56;1.23;;;0.70;;
19575;SDS011;41589;51.196;7.074;2023-07-20T21:28:57;0.80;;;0.80;;
19575;SDS011;41589;51.196;7.074;2023-07-20T21:33:58;0.83;;;0.83;;
19575;SDS011;41589;51.196;7.074;2023-07-20T21:38:58;1.00;;;1.00;;
19575;SDS011;41589;51.196;7.074;2023-07-20T21:43:58;1.03;;;1.03;;
19575;SDS011;41589;51.196;7.074;2023-07-20T21:48:59;1.00;;;1.00;;
19575;SDS011;41589;51.196;7.074;2023-07-20T21:53:59;0.87;;;0.87;;
19575;SDS011;41589;51.196;7.074;2023-07-20T21:59:00;1.10;;;1.10;;
19575;SDS011;41589;51.196;7.074;2023-07-20T22:04:03;1.30;;;1.30;;
19575;SDS011;41589;51.196;7.074;2023-07-20T22:09:04;1.70;;;1.60;;
19575;SDS011;41589;51.196;7.074;2023-07-20T22:14:07;1.53;;;1.43;;
19575;SDS011;41589;51.196;7.074;2023-07-20T22:19:08;1.57;;;1.47;;
19575;SDS011;41589;51.196;7.074;2023-07-20T22:24:09;1.50;;;1.40;;
19575;SDS011;41589;51.196;7.074;2023-07-20T22:29:10;1.50;;;1.40;;
19575;SDS011;41589;51.196;7.074;2023-07-20T22:34:10;1.70;;;1.60;;
19575;SDS011;41589;51.196;7.074;2023-07-20T22:39:11;1.80;;;1.70;;
19575;SDS011;41589;51.196;7.074;2023-07-20T22:44:16;1.20;;;1.20;;
19575;SDS011;41589;51.196;7.074;2023-07-20T22:49:20;1.50;;;1.40;;
19575;SDS011;41589;51.196;7.074;2023-07-20T22:54:21;1.67;;;1.57;;
19575;SDS011;41589;51.196;7.074;2023-07-20T22:59:21;1.33;;;1.33;;
19575;SDS011;41589;51.196;7.074;2023-07-20T23:04:22;1.43;;;1.33;;
19575;SDS011;41589;51.196;7.074;2023-07-20T23:09:23;1.40;;;1.40;;
19575;SDS011;41589;51.196;7.074;2023-07-20T23:14:23;1.90;;;1.80;;
19575;SDS011;41589;51.196;7.074;2023-07-20T23:19:23;1.60;;;1.40;;
19575;SDS011;41589;51.196;7.074;2023-07-20T23:24:25;1.40;;;1.40;;
19575;SDS011;41589;51.196;7.074;2023-07-20T23:29:27;1.20;;;1.20;;
19575;SDS011;41589;51.196;7.074;2023-07-20T23:34:29;1.53;;;1.43;;
19575;SDS011;41589;51.196;7.074;2023-07-20T23:39:30;1.20;;;1.20;;
19575;SDS011;41589;51.196;7.074;2023-07-20T23:44:32;1.30;;;1.30;;
19575;SDS011;41589;51.196;7.074;2023-07-20T23:49:33;1.70;;;1.60;;
19575;SDS011;41589;51.196;7.074;2023-07-20T23:54:33;1.40;;;1.40;;
19575;SDS011;41589;51.196;7.074;2023-07-20T23:59:34;1.30;;;1.30;;
